Flight Track Log - Related Links

Times and Time Zones

All times are in EDT time to prevent confusion due to time zone crossing. See the N45N flight status page for this flight to view local times or setup timezone preferences in your user account.

Time Position Orientation Groundspeed Altitude Reporting Facility
EDT Latitude Longitude Course Direction KTS MPH feet Rate Location/Type
Sat 02:52:13 PM 33.7833 -118.0667 195° South 146 168 800  Level Southern California TRACON
Sat 02:53:08 PM 33.7333 -118.0833 195° South 165 190 2,000 1,200 Climbing Southern California TRACON
Sat 02:54:08 PM 33.7000 -118.1167 220° Southwest 171 197 3,100 1,476 Climbing Southern California TRACON
Sat 02:55:14 PM 33.6664 -118.1489 219° Southwest 157 181 5,100 1,688 Climbing Los Angeles Center
Sat 02:56:16 PM 33.6350 -118.1783 218° Southwest 146 168 6,700 1,548 Climbing Los Angeles Center
Sat 02:57:18 PM 33.6261 -118.2181 255° West 142 163 8,300 1,452 Climbing Los Angeles Center
Sat 02:58:20 PM 33.6536 -118.2431 323° Northwest 131 151 9,700 1,296 Climbing Los Angeles Center
Sat 02:59:23 PM 33.6931 -118.2486 353° North 145 167 11,000 1,200 Climbing Los Angeles Center
Sat 03:00:25 PM 33.7317 -118.2108 39° Northeast 180 207 12,200 1,210 Climbing Los Angeles Center
Sat 03:01:27 PM 33.7456 -118.1558 73° East 182 209 13,500 1,161 Climbing Los Angeles Center
Sat 03:02:29 PM 33.7619 -118.1008 70° East 180 207 14,600 1,065 Climbing Los Angeles Center
Sat 03:04:33 PM 33.8417 -118.0975 North 157 181 16,800 1,032 Climbing Los Angeles Center
Sat 03:05:35 PM 33.8808 -118.1144 340° North 155 178 17,800 919 Climbing Los Angeles Center
Sat 03:06:37 PM 33.9192 -118.1322 339° North 152 175 18,700 871 Climbing Los Angeles Center
Sat 03:07:39 PM 33.9572 -118.1492 340° North 151 174 19,600 629 Climbing Los Angeles Center
Sat 03:08:41 PM 33.9944 -118.1756 330° Northwest 152 175 20,000 194 Climbing Los Angeles Center
Sat 03:09:43 PM 34.0514 -118.2075 335° Northwest 184 212 20,000  Level Los Angeles Center
Sat 03:10:45 PM 34.1011 -118.2356 335° Northwest 191 220 20,000  Level Los Angeles Center
Sat 03:11:48 PM 34.1497 -118.2656 333° Northwest 196 226 20,000  Level Los Angeles Center
Sat 03:12:50 PM 34.1986 -118.2939 334° Northwest 197 227 20,000  Level Los Angeles Center
Sat 03:13:52 PM 34.2478 -118.3228 334° Northwest 196 226 20,000  Level Los Angeles Center
Sat 03:14:54 PM 34.2961 -118.3522 333° Northwest 196 226 20,000  Level Los Angeles Center
Sat 03:15:56 PM 34.3542 -118.3878 333° Northwest 196 226 20,000  Level Los Angeles Center
Sat 03:16:58 PM 34.4036 -118.4183 333° Northwest 197 227 20,000  Level Los Angeles Center
Sat 03:18:00 PM 34.4536 -118.4461 335° Northwest 198 228 20,000  Level Los Angeles Center
Sat 03:19:02 PM 34.5033 -118.4744 335° Northwest 198 228 20,000  Level Los Angeles Center
Sat 03:20:04 PM 34.5528 -118.5031 335° Northwest 198 228 20,000  Level Los Angeles Center
Sat 03:21:06 PM 34.6025 -118.5331 334° Northwest 199 229 20,000  Level Los Angeles Center
Sat 03:22:08 PM 34.6631 -118.5694 334° Northwest 201 231 20,000  Level Los Angeles Center
Sat 03:23:10 PM 34.6967 -118.6178 310° West 201 231 20,000  Level Los Angeles Center
Sat 03:24:12 PM 34.7203 -118.6761 296° West 196 226 20,000  Level Los Angeles Center
Sat 03:25:14 PM 34.7622 -118.7200 319° Northwest 196 226 20,000  Level Los Angeles Center
Sat 03:26:16 PM 34.8000 -118.7658 315° West 196 226 20,000  Level Los Angeles Center
Sat 03:27:18 PM 34.8464 -118.8197 316° Northwest 193 222 20,000  Level Los Angeles Center
Sat 03:28:20 PM 34.8853 -118.8656 316° Northwest 193 222 20,000  Level Los Angeles Center
Sat 03:29:22 PM 34.9250 -118.9142 315° West 192 221 20,000  Level Los Angeles Center
Sat 03:30:24 PM 34.9633 -118.9608 315° West 194 223 20,000  Level Los Angeles Center
Sat 03:31:27 PM 35.0011 -119.0067 315° West 193 222 20,000  Level Los Angeles Center
Sat 03:32:29 PM 35.0406 -119.0506 318° Northwest 193 222 20,000  Level Los Angeles Center
Sat 03:33:31 PM 35.0778 -119.0975 314° West 193 222 20,000  Level Los Angeles Center
Sat 03:34:33 PM 35.1167 -119.1425 317° Northwest 192 221 20,000  Level Los Angeles Center
Sat 03:35:35 PM 35.1625 -119.1989 315° West 193 222 20,000  Level Los Angeles Center
Sat 03:36:37 PM 35.1997 -119.2450 315° West 193 222 20,000  Level Los Angeles Center
Sat 03:37:39 PM 35.2378 -119.2908 315° West 193 222 20,000  Level Los Angeles Center
Sat 03:38:41 PM 35.2772 -119.3364 317° Northwest 193 222 20,000  Level Los Angeles Center
Sat 03:39:44 PM 35.3153 -119.3822 316° Northwest 193 222 20,000  Level Los Angeles Center
Sat 03:40:46 PM 35.3608 -119.4386 315° West 193 222 20,000  Level Los Angeles Center
Sat 03:41:48 PM 35.3997 -119.4842 316° Northwest 194 223 20,000  Level Los Angeles Center
Sat 03:42:50 PM 35.4372 -119.5314 314° West 194 223 20,000  Level Los Angeles Center
Sat 03:43:52 PM 35.4756 -119.5786 315° West 194 223 20,000  Level Los Angeles Center
Sat 03:44:54 PM 35.5122 -119.6242 315° West 193 222 20,000  Level Los Angeles Center
Sat 03:45:56 PM 35.5508 -119.6700 316° Northwest 193 222 20,000  Level Los Angeles Center
Sat 03:46:58 PM 35.5961 -119.7258 315° West 193 222 20,000  Level Los Angeles Center
Sat 03:48:00 PM 35.6325 -119.7722 314° West 193 222 20,000  Level Los Angeles Center
Sat 03:49:03 PM 35.6692 -119.8183 314° West 192 221 20,000  Level Los Angeles Center
Sat 03:50:05 PM 35.7069 -119.8642 315° West 192 221 20,000  Level Los Angeles Center
Sat 03:51:03 PM 35.7436 -119.9089 315° West 192 221 20,000  Level Oakland Center
Sat 03:52:04 PM 35.7761 -119.9603 308° West 191 220 20,000 -49 Level Oakland Center
Sat 03:53:05 PM 35.8072 -120.0122 306° West 189 217 19,900 -244 Descending Oakland Center
Sat 03:54:07 PM 35.8428 -120.0644 310° West 196 226 19,500 -439 Descending Oakland Center
Sat 03:55:08 PM 35.8881 -120.1258 312° West 198 228 19,000 -443 Descending Oakland Center
Sat 03:56:09 PM 35.9264 -120.1786 312° West 203 234 18,600 -439 Descending Oakland Center
Sat 03:57:11 PM 35.9647 -120.2292 313° West 203 234 18,100 -488 Descending Oakland Center
Sat 03:58:12 PM 36.0022 -120.2811 312° West 203 234 17,600 -439 Descending Oakland Center
Sat 03:59:14 PM 36.0406 -120.3325 313° West 204 235 17,200 -439 Descending Oakland Center
Sat 04:00:15 PM 36.0775 -120.3842 312° West 203 234 16,700 -492 Descending Oakland Center
Sat 04:01:16 PM 36.1133 -120.4344 311° West 200 230 16,200 -341 Descending Oakland Center
Sat 04:02:18 PM 36.1497 -120.4858 311° West 200 230 16,000 -98 Descending Oakland Center
Sat 04:03:19 PM 36.1908 -120.5436 311° West 191 220 16,000  Level Oakland Center
Sat 04:04:20 PM 36.2225 -120.5933 308° West 188 216 16,000  Level Oakland Center
Sat 04:05:22 PM 36.2564 -120.6392 313° West 183 211 16,000  Level Oakland Center
Sat 04:06:23 PM 36.2903 -120.6869 311° West 183 211 16,000  Level Oakland Center
Sat 04:07:25 PM 36.3242 -120.7347 311° West 184 212 16,000  Level Oakland Center
Sat 04:08:26 PM 36.3572 -120.7825 311° West 184 212 16,000  Level Oakland Center
Sat 04:09:27 PM 36.3900 -120.8306 310° West 183 211 16,000  Level Oakland Center
Sat 04:10:29 PM 36.4219 -120.8792 309° West 183 211 16,000  Level Oakland Center
Sat 04:11:30 PM 36.4617 -120.9364 311° West 183 211 16,000  Level Oakland Center
Sat 04:12:32 PM 36.4942 -120.9842 310° West 182 209 16,000  Level Oakland Center
Sat 04:13:33 PM 36.5275 -121.0308 312° West 182 209 16,000 -344 Level Oakland Center
Sat 04:14:34 PM 36.5619 -121.0811 310° West 193 222 15,300 -634 Descending Oakland Center
Sat 04:15:36 PM 36.5981 -121.1342 310° West 199 229 14,700 -585 Descending Oakland Center
Sat 04:16:37 PM 36.6364 -121.1869 312° West 203 234 14,100 -639 Descending Oakland Center
Sat 04:17:38 PM 36.6742 -121.2394 312° West 202 232 13,400 -634 Descending Oakland Center
Sat 04:18:40 PM 36.7114 -121.2928 311° West 203 234 12,800 -683 Descending Oakland Center
Sat 04:19:41 PM 36.7553 -121.3578 310° West 203 234 12,000 -732 Descending Oakland Center
Sat 04:20:43 PM 36.7922 -121.4103 311° West 202 232 11,300 -732 Descending Oakland Center
Sat 04:21:44 PM 36.8281 -121.4628 310° West 202 232 10,500 -639 Descending Oakland Center
Sat 04:22:45 PM 36.8614 -121.5192 306° West 202 232 10,000 -585 Descending Oakland Center
Sat 04:23:47 PM 36.8975 -121.5717 311° West 202 232 9,300 -634 Descending Oakland Center
Sat 04:24:48 PM 36.9317 -121.6250 309° West 202 232 8,700 -683 Descending Oakland Center
Sat 04:25:50 PM 36.9675 -121.6775 311° West 201 231 7,900 -732 Descending Oakland Center
Sat 04:26:51 PM 37.0050 -121.7317 311° West 201 231 7,200 -639 Descending Oakland Center
Sat 04:27:52 PM 37.0433 -121.7844 312° West 202 232 6,600 -683 Descending Oakland Center
Sat 04:28:54 PM 37.0878 -121.8481 311° West 202 232 5,800 -634 Descending Oakland Center
Sat 04:29:55 PM 37.1242 -121.8997 311° West 202 232 5,300 -488 Descending Oakland Center
Sat 04:30:57 PM 37.1711 -121.9303 333° Northwest 197 227 4,800 -488 Descending Oakland Center
Sat 04:31:58 PM 37.2211 -121.9500 343° North 191 220 4,300 -590 Descending Oakland Center
Sat 04:32:59 PM 37.2644 -121.9711 339° North 181 208 3,600 -732 Descending Oakland Center
Sat 04:34:01 PM 37.3044 -121.9914 338° Northwest 168 193 2,800 -976 Descending Oakland Center
Sat 04:35:02 PM 37.3394 -122.0094 338° Northwest 150 173 1,600 -934 Descending Oakland Center
Sat 04:36:03 PM 37.3719 -122.0275 336° Northwest 138 159 900 -717 Descending Oakland Center
Sat 04:36:34 PM 37.3833 -122.0333 338° Northwest 110 127 500 -774 Descending Northern Cal TRACON
Sat 04:39:00 PM 37.4000 -122.0333 North  Level FlightAware Approximate

Login

Don't have an account? Register now (free) for customized features, flight alerts, and more!